»·PEaware :: N114LW KHHR-L71

N114LW :: KHHR-L71

FLIGHT INFORMATION

Flight Status: Arrived
Operator: Privately registered:
United States
More flights under this callsign
Pilot: Lee W. (44)
Aircraft: MOONEY M-20 201 202 205 220 ATS MSE
(M20P)
More flights by this aircraft type
Origin: KHHR Northrop/Hawthorne Mun
United States
Destination: L71 California City Mun
United States
More flights between these airports :: More routes between these airports
Route: +
File this flight plan on PilotEdge
Remarks:
Altitude:
(Current/Filed)
3,500ft
Speed:
(Current/Filed)
0kts
Departed: 15-Jul-13 05:55 PM
Arrived: 15-Jul-13 06:45 PM
Distance/Time
Traveled:
76nm/0:50
Distance/Time
To Go:
Arrived

Flight Plot

Page will automatically refresh every two minutes.

Flight plan parsing failed; only flown route is shown


Map Options




Map Legend


Flown Route
Filed Route
Departure Airport
Arrival Airport
Navaid (VOR, NDB)
Fix

Horizontal Profiles

Position Reports

Time Latitude Longitude Heading Altitude Ground
Speed
15-Jul-13 17:49 33.923578 -118.339614 180 69ft 0kts
15-Jul-13 17:50 33.923578 -118.339614 180 69ft 0kts
15-Jul-13 17:51 33.923499 -118.339549 118 69ft 4kts
15-Jul-13 17:52 33.923189 -118.337173 82 69ft 16kts
15-Jul-13 17:53 33.923467 -118.332608 87 69ft 23kts
15-Jul-13 17:54 33.923371 -118.331424 135 69ft 0kts
15-Jul-13 17:55 33.923052 -118.331376 260 69ft 3kts
15-Jul-13 17:56 33.922127 -118.341775 261 138ft 81kts
15-Jul-13 17:57 33.909631 -118.353742 169 574ft 120kts
15-Jul-13 17:58 33.901383 -118.329895 82 1035ft 139kts
15-Jul-13 17:59 33.904925 -118.298971 80 1493ft 145kts
15-Jul-13 18:00 33.909410 -118.268116 80 1941ft 148kts
15-Jul-13 18:01 33.914479 -118.237598 79 1988ft 156kts
15-Jul-13 18:02 33.920071 -118.206858 80 1988ft 159kts
15-Jul-13 18:03 33.925833 -118.175218 80 1983ft 160kts
15-Jul-13 18:04 33.931397 -118.144190 80 1979ft 158kts
15-Jul-13 18:05 33.936957 -118.111301 80 1976ft 157kts
15-Jul-13 18:06 33.942060 -118.079342 80 2078ft 151kts
15-Jul-13 18:07 33.947039 -118.047279 80 2598ft 140kts
15-Jul-13 18:08 33.952029 -118.015462 80 3156ft 132kts
15-Jul-13 18:09 33.966848 -117.994792 359 3479ft 151kts
15-Jul-13 18:10 33.998652 -117.996815 358 3497ft 174kts
15-Jul-13 18:11 34.034136 -117.998203 358 3494ft 185kts
15-Jul-13 18:12 34.070786 -117.998111 358 3731ft 178kts
15-Jul-13 18:13 34.106540 -117.996488 358 4239ft 164kts
15-Jul-13 18:14 34.142826 -117.994383 358 4820ft 154kts
15-Jul-13 18:15 34.179073 -117.991915 358 5392ft 147kts
15-Jul-13 18:16 34.216469 -117.989019 358 6175ft 142kts
15-Jul-13 18:17 34.253159 -117.985912 351 6909ft 135kts
15-Jul-13 18:18 34.289467 -117.994955 340 7586ft 141kts
15-Jul-13 18:19 34.328308 -118.003292 340 7814ft 143kts
15-Jul-13 18:20 34.367753 -118.011253 338 8163ft 146kts
15-Jul-13 18:21 34.407773 -118.019167 337 8088ft 148kts
15-Jul-13 18:22 34.447663 -118.027064 336 8260ft 146kts
15-Jul-13 18:23 34.488150 -118.035065 337 8496ft 150kts
15-Jul-13 18:24 34.528737 -118.043098 336 8537ft 150kts
15-Jul-13 18:25 34.568114 -118.050851 337 8543ft 155kts
15-Jul-13 18:26 34.610304 -118.059230 336 8540ft 158kts
15-Jul-13 18:27 34.652539 -118.067449 337 8539ft 160kts
15-Jul-13 18:28 34.695942 -118.075764 337 8538ft 162kts
15-Jul-13 18:29 34.738960 -118.084052 337 8540ft 163kts
15-Jul-13 18:30 34.780609 -118.092091 339 8530ft 166kts
15-Jul-13 18:31 34.816196 -118.098934 340 8529ft 168kts
15-Jul-13 18:32 34.851008 -118.105650 342 8250ft 175kts
15-Jul-13 18:33 34.892123 -118.113532 343 7764ft 178kts
15-Jul-13 18:34 34.934358 -118.121553 343 7281ft 178kts
15-Jul-13 18:35 34.972923 -118.129023 342 6804ft 175kts
15-Jul-13 18:36 35.006760 -118.135523 341 6267ft 172kts
15-Jul-13 18:37 35.051009 -118.143543 357 5511ft 177kts
15-Jul-13 18:38 35.087606 -118.103001 50 4746ft 186kts
15-Jul-13 18:39 35.119892 -118.059122 52 3958ft 177kts
15-Jul-13 18:40 35.136198 -118.034886 76 3556ft 164kts
15-Jul-13 18:41 35.143208 -118.013510 81 3613ft 113kts
15-Jul-13 18:42 35.147015 -117.996367 95 3372ft 102kts
15-Jul-13 18:43 35.156515 -117.983849 334 2970ft 116kts
15-Jul-13 18:44 35.156630 -117.993973 237 2715ft 68kts
15-Jul-13 18:46 35.154325 -118.003419 243 2541ft 56kts
15-Jul-13 18:47 35.152461 -118.010614 260 2457ft 32kts

Navigation Log

Ident Type
Flight plan parsing failed, navigation log unavailable